Time;durP1;ratioP1;P1;durP2;ratioP2;P2;SDS_P1;SDS_P2;PMS_P1;PMS_P2;Temp;Humidity;BMP_temperature;BMP_pressure;BME280_temperature;BME280_humidity;BME280_pressure;Samples;Min_cycle;Max_cycle;Signal;HPM_P1;HPM_P2
2022/12/03 06:26:41;;;;;;;29.67;16.00;;;3.00;99.90;;;;;;6222723;22;20035;-91
2022/12/03 07:17:14;;;;;;;;;;;;;;;;;;;;;
2022/12/03 07:20:18;;;;;;;25.75;14.63;;;2.80;99.90;;;;;;6055229;23;20121;-96
2022/12/03 07:23:28;;;;;;;29.60;15.38;;;2.80;99.90;;;;;;6096351;23;20022;-96
2022/12/03 07:39:56;;;;;;;;;;;;;;;;;;;;;
2022/12/03 08:16:15;;;;;;;;;;;2.70;99.90;;;;;;6232699;23;20047;-89
2022/12/03 10:11:00;;;;;;;33.53;18.10;;;2.40;99.90;;;;;;6190675;22;20472;-88
2022/12/03 10:29:51;;;;;;;37.72;19.27;;;2.40;99.90;;;;;;5918811;24;20461;-89
2022/12/03 10:46:01;;;;;;;32.60;18.30;;;2.50;99.90;;;;;;6211833;22;20050;-91
2022/12/03 10:48:27;;;;;;;34.72;18.98;;;2.50;99.90;;;;;;6218631;22;20027;-89
2022/12/03 10:50:56;;;;;;;34.90;17.60;;;3.60;99.90;;;;;;6245385;22;20379;-88
2022/12/03 11:35:13;;;;;;;31.30;18.35;;;2.60;99.90;;;;;;6275850;22;20030;-94
2022/12/03 11:37:51;;;;;;;33.15;18.70;;;2.70;99.90;;;;;;6222178;22;20080;-93
2022/12/03 11:41:30;;;;;;;31.90;18.60;;;2.60;99.90;;;;;;6302392;22;20068;-94
2022/12/03 11:52:33;;;;;;;;;;;;;;;;;;;;;
2022/12/03 11:56:05;;;;;;;33.67;18.60;;;2.30;99.90;;;;;;6303328;22;20085;-95
2022/12/03 11:59:21;;;;;;;;;;;;;;;;;;;;;
2022/12/03 12:02:39;;;;;;;35.13;19.80;;;3.10;99.90;;;;;;6273939;22;20015;-93
2022/12/03 12:14:01;;;;;;;;;;;;;;;;;;;;;
2022/12/03 12:24:10;;;;;;;35.33;19.80;;;2.60;99.90;;;;;;6183541;23;20025;-95
2022/12/03 12:27:46;;;;;;;35.65;18.52;;;2.60;99.90;;;;;;6187120;23;20243;-94
2022/12/03 12:31:03;;;;;;;33.45;19.63;;;2.60;99.90;;;;;;6142509;23;20021;-95
2022/12/03 12:37:58;;;;;;;36.30;19.25;;;2.60;99.90;;;;;;6218531;23;20024;-95
2022/12/03 12:49:39;;;;;;;36.67;19.60;;;2.10;99.90;;;;;;6137446;23;20172;-95
2022/12/03 13:21:26;;;;;;;35.45;19.73;;;2.30;99.90;;;;;;6296636;22;20411;-82
2022/12/03 13:23:54;;;;;;;35.50;20.37;;;2.80;99.90;;;;;;6299396;22;20018;-81
2022/12/03 13:26:55;;;;;;;35.88;18.48;;;2.20;99.90;;;;;;6299411;22;20059;-83
2022/12/03 13:29:21;;;;;;;38.58;19.42;;;2.30;99.90;;;;;;6300461;22;20015;-81
2022/12/03 13:31:56;;;;;;;34.22;19.10;;;2.70;99.90;;;;;;6300587;22;20090;-81
2022/12/03 13:34:28;;;;;;;32.22;18.35;;;2.30;99.90;;;;;;6298937;22;20015;-81
2022/12/03 13:36:54;;;;;;;36.58;20.70;;;3.30;99.90;;;;;;6300291;22;20027;-81
2022/12/03 13:39:31;;;;;;;34.10;19.27;;;2.90;99.90;;;;;;6274830;22;20019;-81
2022/12/03 13:44:52;;;;;;;35.53;20.58;;;2.80;99.90;;;;;;6300537;22;20019;-81
2022/12/03 13:47:20;;;;;;;38.70;19.60;;;2.50;99.90;;;;;;6297994;22;20030;-82
2022/12/03 13:49:55;;;;;;;34.83;19.52;;;2.20;99.90;;;;;;6300182;22;20024;-81
2022/12/03 13:52:23;;;;;;;41.83;20.67;;;2.50;99.90;;;;;;6300102;22;20011;-81
2022/12/03 13:54:53;;;;;;;36.05;19.70;;;2.20;99.90;;;;;;6273320;22;20023;-82
2022/12/03 13:57:22;;;;;;;34.63;20.13;;;2.10;99.90;;;;;;6299791;22;20094;-87
2022/12/03 13:59:54;;;;;;;32.72;19.77;;;2.70;99.90;;;;;;6299613;22;20027;-82
2022/12/03 14:02:20;;;;;;;34.05;18.67;;;2.10;99.90;;;;;;6298098;22;20761;-82
2022/12/03 14:05:06;;;;;;;35.30;20.73;;;2.90;99.90;;;;;;6298590;22;20122;-82
2022/12/03 14:07:32;;;;;;;33.85;18.80;;;2.00;99.90;;;;;;6299232;22;20015;-82
2022/12/03 14:09:57;;;;;;;35.42;19.88;;;2.00;99.90;;;;;;6298434;22;20019;-82
2022/12/03 14:12:24;;;;;;;35.55;21.17;;;2.30;99.90;;;;;;6299451;22;20019;-82
2022/12/03 14:14:53;;;;;;;35.63;20.17;;;2.00;99.90;;;;;;6299888;22;20386;-82
2022/12/03 14:17:18;;;;;;;36.53;20.95;;;1.90;99.90;;;;;;6297311;22;20024;-82
2022/12/03 14:19:45;;;;;;;33.20;20.17;;;2.30;99.90;;;;;;6299409;22;20025;-82
2022/12/03 14:22:11;;;;;;;37.42;19.90;;;1.90;99.90;;;;;;6298782;22;20023;-82
2022/12/03 14:24:39;;;;;;;37.10;21.05;;;2.60;99.90;;;;;;6299653;22;20442;-82
2022/12/03 14:27:05;;;;;;;36.80;20.38;;;1.90;99.90;;;;;;6299280;22;20176;-82
2022/12/03 14:29:31;;;;;;;35.78;20.63;;;1.90;99.90;;;;;;6273088;22;20443;-82
2022/12/03 14:32:01;;;;;;;37.40;20.77;;;1.90;99.90;;;;;;6299367;22;20039;-82
2022/12/03 14:34:27;;;;;;;37.13;21.13;;;2.80;99.90;;;;;;6299891;22;20011;-82
2022/12/03 14:36:53;;;;;;;36.50;22.38;;;2.00;99.90;;;;;;6298973;22;20026;-82
2022/12/03 14:39:18;;;;;;;37.20;21.63;;;2.20;99.90;;;;;;6299668;22;20023;-82
2022/12/03 14:44:28;;;;;;;39.08;20.98;;;1.90;99.90;;;;;;6298906;22;20023;-82
2022/12/03 14:46:54;;;;;;;38.03;21.23;;;1.20;99.90;;;;;;6299376;22;20019;-82
2022/12/03 14:49:20;;;;;;;39.90;21.05;;;2.80;99.90;;;;;;6297620;22;20026;-82
2022/12/03 14:51:46;;;;;;;39.22;22.33;;;2.90;99.90;;;;;;6299170;22;20023;-82
2022/12/03 14:54:11;;;;;;;40.42;21.88;;;2.60;99.90;;;;;;6299375;22;20026;-83
2022/12/03 14:56:37;;;;;;;39.97;21.55;;;2.80;99.90;;;;;;6299637;22;20019;-82
2022/12/03 14:59:03;;;;;;;37.63;21.52;;;2.10;99.90;;;;;;6297810;22;20088;-82
2022/12/03 15:01:28;;;;;;;38.22;22.35;;;1.70;99.90;;;;;;6299733;22;20443;-82
2022/12/03 15:03:54;;;;;;;37.08;20.02;;;2.30;99.90;;;;;;6298468;22;20046;-81
2022/12/03 15:06:20;;;;;;;39.83;21.90;;;2.50;99.90;;;;;;6297703;22;20015;-81
2022/12/03 15:08:45;;;;;;;36.45;22.15;;;1.70;99.90;;;;;;6300647;22;20072;-81
2022/12/03 15:11:11;;;;;;;36.60;21.35;;;1.60;99.90;;;;;;6299290;22;20023;-81
2022/12/03 15:13:36;;;;;;;41.08;22.58;;;2.40;99.90;;;;;;6324636;22;20443;-81
2022/12/03 15:16:02;;;;;;;40.78;22.48;;;1.60;99.90;;;;;;6298641;22;20676;-81
2022/12/03 15:18:29;;;;;;;35.50;21.33;;;1.60;99.90;;;;;;6297848;22;20145;-81
2022/12/03 15:20:56;;;;;;;39.88;22.17;;;2.30;99.90;;;;;;6298836;22;20015;-81
2022/12/03 15:23:22;;;;;;;38.92;20.98;;;2.20;99.90;;;;;;6299496;22;20027;-81
2022/12/03 15:25:48;;;;;;;38.90;20.83;;;2.40;99.90;;;;;;6297850;22;20293;-81
2022/12/03 15:28:14;;;;;;;37.05;21.58;;;1.50;99.90;;;;;;6298534;22;20047;-81
2022/12/03 15:30:39;;;;;;;38.42;21.20;;;1.50;99.90;;;;;;6299435;22;20026;-80
2022/12/03 15:33:05;;;;;;;36.92;20.73;;;1.60;99.90;;;;;;6296078;22;20403;-81
2022/12/03 15:35:31;;;;;;;35.05;20.13;;;1.50;99.90;;;;;;6301525;22;20023;-82
2022/12/03 15:37:57;;;;;;;36.83;20.35;;;1.60;99.90;;;;;;6298103;22;20016;-81
2022/12/03 15:40:23;;;;;;;36.70;20.27;;;1.80;99.90;;;;;;6298109;22;20023;-81
2022/12/03 15:42:49;;;;;;;35.63;20.77;;;2.40;99.90;;;;;;6272348;22;20053;-80
2022/12/03 15:45:15;;;;;;;38.90;20.10;;;2.10;99.90;;;;;;6298327;22;20022;-80
2022/12/03 15:47:40;;;;;;;38.53;20.75;;;2.50;99.90;;;;;;6297465;22;20100;-81
2022/12/03 15:50:07;;;;;;;37.80;20.02;;;2.50;99.90;;;;;;6298645;22;20069;-81
2022/12/03 15:52:32;;;;;;;38.45;20.58;;;1.50;99.90;;;;;;6298704;22;20078;-82
2022/12/03 15:54:58;;;;;;;36.33;19.95;;;2.10;99.90;;;;;;6297700;22;20094;-81
2022/12/03 15:57:24;;;;;;;38.45;21.10;;;2.50;99.90;;;;;;6272539;22;20019;-81
2022/12/03 15:59:50;;;;;;;38.22;21.65;;;2.40;99.90;;;;;;6299311;22;20051;-82
2022/12/03 16:02:17;;;;;;;39.80;21.30;;;1.50;99.90;;;;;;6296351;22;20050;-80
2022/12/03 16:04:43;;;;;;;37.22;20.13;;;1.70;99.90;;;;;;6299268;22;20495;-80
2022/12/03 16:07:09;;;;;;;36.90;21.63;;;1.50;99.90;;;;;;6298771;22;20068;-80
2022/12/03 16:09:35;;;;;;;36.33;20.35;;;1.50;99.90;;;;;;6299336;22;20019;-80
2022/12/03 16:12:01;;;;;;;36.88;20.77;;;1.40;99.90;;;;;;6300715;22;20019;-82
2022/12/03 16:14:27;;;;;;;37.13;20.85;;;1.60;99.90;;;;;;6301333;22;20096;-80
2022/12/03 16:16:53;;;;;;;38.42;20.48;;;1.50;99.90;;;;;;6300293;22;20022;-81
2022/12/03 16:19:19;;;;;;;38.55;20.98;;;2.00;99.90;;;;;;6299384;22;20096;-82
2022/12/03 16:21:45;;;;;;;35.08;20.02;;;2.00;99.90;;;;;;6300508;22;20074;-81
2022/12/03 16:24:11;;;;;;;38.65;21.17;;;2.50;99.90;;;;;;6300905;22;20015;-81
2022/12/03 16:26:37;;;;;;;36.30;21.55;;;1.50;99.90;;;;;;6301118;22;20060;-81
2022/12/03 16:29:02;;;;;;;38.13;20.35;;;1.60;99.90;;;;;;6300044;22;20504;-81
2022/12/03 16:31:28;;;;;;;37.97;21.27;;;2.60;99.90;;;;;;6301037;22;20451;-81
2022/12/03 16:33:54;;;;;;;38.97;19.85;;;1.80;99.90;;;;;;6299927;22;20015;-82
2022/12/03 16:36:19;;;;;;;40.20;20.35;;;2.00;99.90;;;;;;6300010;22;20019;-81
2022/12/03 16:38:45;;;;;;;34.00;19.33;;;1.40;99.90;;;;;;6300473;22;20025;-81
2022/12/03 16:41:11;;;;;;;36.10;21.05;;;1.50;99.90;;;;;;6300707;22;20469;-81
2022/12/03 16:43:37;;;;;;;34.38;19.02;;;1.40;99.90;;;;;;6299758;22;20030;-82
2022/12/03 16:48:43;;;;;;;36.90;20.35;;;1.40;99.90;;;;;;6299270;22;20023;-81
2022/12/03 16:51:09;;;;;;;38.10;20.30;;;2.20;99.90;;;;;;6300618;22;20676;-81
2022/12/03 16:53:35;;;;;;;35.28;20.65;;;1.40;99.90;;;;;;6302181;22;20381;-81
2022/12/03 16:56:01;;;;;;;35.05;19.40;;;1.10;99.90;;;;;;6299924;22;20027;-81
2022/12/03 16:58:27;;;;;;;35.25;19.73;;;2.40;99.90;;;;;;6274020;22;20011;-81
2022/12/03 17:00:53;;;;;;;35.88;19.75;;;1.30;99.90;;;;;;6299646;22;20019;-81
2022/12/03 17:03:19;;;;;;;34.95;19.38;;;1.30;99.90;;;;;;6299490;22;20019;-82
2022/12/03 17:05:45;;;;;;;37.42;20.58;;;1.30;99.90;;;;;;6300564;22;20023;-81
2022/12/03 17:08:12;;;;;;;33.75;20.05;;;1.30;99.90;;;;;;6299599;22;20034;-81
2022/12/03 17:10:38;;;;;;;43.78;21.65;;;2.10;99.90;;;;;;6326818;22;20038;-82
2022/12/03 17:13:04;;;;;;;38.95;21.15;;;1.30;99.90;;;;;;6298329;22;20019;-82
2022/12/03 17:15:30;;;;;;;37.53;21.45;;;2.10;99.90;;;;;;6300503;22;20042;-81
2022/12/03 17:17:56;;;;;;;36.78;20.15;;;1.30;99.90;;;;;;6298278;22;20019;-81
2022/12/03 17:20:22;;;;;;;38.03;21.13;;;1.20;99.90;;;;;;6299868;22;20043;-81
2022/12/03 17:22:48;;;;;;;39.33;19.80;;;1.20;99.90;;;;;;6301934;22;20034;-81
2022/12/03 17:25:14;;;;;;;39.90;21.20;;;1.60;99.90;;;;;;6273256;22;20029;-81
2022/12/03 17:27:40;;;;;;;39.53;20.88;;;1.10;99.90;;;;;;6328867;22;20015;-82
2022/12/03 17:30:07;;;;;;;40.55;20.35;;;1.10;99.90;;;;;;6298289;22;20011;-82
2022/12/03 17:32:33;;;;;;;40.67;21.17;;;1.10;99.90;;;;;;6299664;22;20031;-83
2022/12/03 17:34:58;;;;;;;38.22;20.48;;;1.70;99.90;;;;;;6298547;22;20095;-82
2022/12/03 17:37:24;;;;;;;39.83;21.50;;;2.00;99.90;;;;;;6274480;22;20061;-83
2022/12/03 17:39:50;;;;;;;38.97;20.20;;;1.00;99.90;;;;;;6299372;22;20439;-84
2022/12/03 17:42:15;;;;;;;39.30;21.92;;;1.00;99.90;;;;;;6299674;22;20019;-83
2022/12/03 17:44:41;;;;;;;37.17;19.98;;;2.00;99.90;;;;;;6275011;22;20019;-82
2022/12/03 17:47:07;;;;;;;39.35;20.95;;;1.40;99.90;;;;;;6297992;22;20015;-82
2022/12/03 17:49:32;;;;;;;39.33;20.27;;;0.90;99.90;;;;;;6300683;22;20466;-81
2022/12/03 17:51:58;;;;;;;38.38;20.17;;;1.50;99.90;;;;;;6300081;22;20023;-82
2022/12/03 17:54:24;;;;;;;37.60;19.70;;;1.30;99.90;;;;;;6299964;22;20020;-81
2022/12/03 17:56:50;;;;;;;40.33;21.30;;;1.20;99.90;;;;;;6299975;22;20015;-81
2022/12/03 17:59:15;;;;;;;38.40;21.00;;;0.70;99.90;;;;;;6299644;22;20102;-82
2022/12/03 18:01:42;;;;;;;41.05;21.13;;;1.50;99.90;;;;;;6299575;22;20015;-83
2022/12/03 18:04:09;;;;;;;42.15;20.55;;;0.60;99.90;;;;;;6295999;22;20107;-83
2022/12/03 18:06:35;;;;;;;38.72;20.98;;;0.60;99.90;;;;;;6296926;22;20027;-81
2022/12/03 18:09:01;;;;;;;43.03;20.95;;;0.60;99.90;;;;;;6295048;22;20049;-83
2022/12/03 18:11:27;;;;;;;42.55;20.40;;;1.20;99.90;;;;;;6297122;22;20026;-82
2022/12/03 18:13:52;;;;;;;46.75;21.42;;;1.40;99.90;;;;;;6297377;22;20011;-83
2022/12/03 18:16:18;;;;;;;42.28;21.75;;;0.80;99.90;;;;;;6295770;22;20569;-83
2022/12/03 18:18:44;;;;;;;37.15;19.75;;;1.50;99.90;;;;;;6297613;22;20254;-82
2022/12/03 18:21:11;;;;;;;38.10;21.40;;;1.20;99.90;;;;;;6296025;22;20094;-82
2022/12/03 18:23:37;;;;;;;43.55;21.38;;;1.50;99.90;;;;;;6296282;22;20696;-82
2022/12/03 18:26:03;;;;;;;39.30;20.45;;;0.90;99.90;;;;;;6295940;22;20285;-83
2022/12/03 18:28:30;;;;;;;37.00;20.15;;;1.00;99.90;;;;;;6295985;22;20853;-83
2022/12/03 18:30:57;;;;;;;42.45;19.80;;;1.70;99.90;;;;;;6296007;22;20019;-82
2022/12/03 18:33:23;;;;;;;36.92;20.60;;;1.00;99.90;;;;;;6321634;22;20019;-83
2022/12/03 18:35:53;;;;;;;39.90;19.20;;;2.10;99.90;;;;;;6294206;22;20019;-83
2022/12/03 18:38:19;;;;;;;38.40;19.08;;;1.00;99.90;;;;;;6321185;22;20026;-83
2022/12/03 18:40:46;;;;;;;39.25;19.40;;;1.30;99.90;;;;;;6294714;22;20069;-82
2022/12/03 18:43:15;;;;;;;36.72;19.02;;;1.00;99.90;;;;;;6293814;22;20015;-83
2022/12/03 18:45:41;;;;;;;40.03;20.38;;;1.10;99.90;;;;;;6297702;22;20343;-83
2022/12/03 18:48:14;;;;;;;34.20;18.65;;;1.10;99.90;;;;;;6294716;22;20016;-85
2022/12/03 18:50:40;;;;;;;;;;;1.60;99.90;;;;;;6296170;22;20439;-82
2022/12/03 18:53:10;;;;;;;37.78;19.55;;;2.20;99.90;;;;;;6294787;22;19921;-83
2022/12/03 18:55:36;;;;;;;34.50;19.15;;;1.60;99.90;;;;;;6296758;22;20386;-83
2022/12/03 18:58:02;;;;;;;33.60;18.30;;;2.10;99.90;;;;;;6269464;22;20073;-83
2022/12/03 19:00:28;;;;;;;32.97;17.80;;;1.20;99.90;;;;;;6296536;22;20053;-82
2022/12/03 19:02:53;;;;;;;40.47;19.48;;;2.00;99.90;;;;;;6294865;22;20022;-83
2022/12/03 19:05:19;;;;;;;34.00;18.67;;;1.30;99.90;;;;;;6269319;22;20447;-82
2022/12/03 19:07:45;;;;;;;40.95;19.38;;;2.10;99.90;;;;;;6295468;22;20025;-82
2022/12/03 19:10:11;;;;;;;35.70;19.50;;;2.30;99.90;;;;;;6296336;22;20015;-83
2022/12/03 19:12:37;;;;;;;34.42;18.10;;;1.30;99.90;;;;;;6295252;22;20352;-83
2022/12/03 19:15:05;;;;;;;33.50;17.92;;;1.20;99.90;;;;;;6295934;22;20031;-83
2022/12/03 19:17:31;;;;;;;35.95;18.45;;;1.30;99.90;;;;;;6294326;22;20015;-83
2022/12/03 19:19:56;;;;;;;34.50;18.95;;;1.50;99.90;;;;;;6295326;22;20073;-83
2022/12/03 19:22:22;;;;;;;34.20;18.13;;;1.30;99.90;;;;;;6296036;22;20020;-83
2022/12/03 19:24:49;;;;;;;36.08;18.25;;;2.20;99.90;;;;;;6269879;22;20019;-83
2022/12/03 19:27:15;;;;;;;31.25;17.52;;;1.40;99.90;;;;;;6294114;22;20015;-83
2022/12/03 19:29:40;;;;;;;33.63;18.63;;;1.30;99.90;;;;;;6296794;22;20027;-83
2022/12/03 19:32:07;;;;;;;35.25;18.50;;;1.90;99.90;;;;;;6292944;22;20020;-82
2022/12/03 19:34:33;;;;;;;33.08;17.83;;;1.30;99.90;;;;;;6296554;22;20054;-83
2022/12/03 19:36:59;;;;;;;34.47;18.95;;;1.40;99.90;;;;;;6295542;22;20343;-82
2022/12/03 19:39:25;;;;;;;37.75;19.63;;;1.40;99.90;;;;;;6297678;22;20023;-83
2022/12/03 19:41:51;;;;;;;34.13;18.45;;;1.30;99.90;;;;;;6296271;22;20073;-83
2022/12/03 19:44:18;;;;;;;34.25;18.17;;;1.30;99.90;;;;;;6322814;22;20058;-83
2022/12/03 19:46:44;;;;;;;35.10;18.88;;;1.30;99.90;;;;;;6298101;22;20458;-83
2022/12/03 19:49:10;;;;;;;33.15;19.08;;;1.60;99.90;;;;;;6298652;22;20085;-82
2022/12/03 19:51:36;;;;;;;34.05;18.85;;;1.40;99.90;;;;;;6298142;22;20737;-82
2022/12/03 19:54:05;;;;;;;34.88;19.17;;;2.20;99.90;;;;;;6296574;22;20026;-82
2022/12/03 19:56:31;;;;;;;34.95;19.17;;;1.40;99.90;;;;;;6300221;22;20050;-82
2022/12/03 19:58:57;;;;;;;35.50;19.05;;;2.50;99.90;;;;;;6297344;22;20455;-82
2022/12/03 20:01:26;;;;;;;38.35;19.20;;;1.30;99.90;;;;;;6297739;22;20023;-82
2022/12/03 20:03:54;;;;;;;33.88;19.25;;;1.40;99.90;;;;;;6297099;22;20102;-82
2022/12/03 20:06:23;;;;;;;38.63;20.45;;;1.30;99.90;;;;;;6298218;22;20481;-82
2022/12/03 20:08:50;;;;;;;38.13;20.00;;;1.40;99.90;;;;;;6297626;22;20159;-82
2022/12/03 20:11:20;;;;;;;35.03;19.50;;;1.40;99.90;;;;;;6323621;22;20096;-82
2022/12/03 20:13:48;;;;;;;37.65;18.15;;;1.30;99.90;;;;;;6296722;22;20038;-83
2022/12/03 20:16:15;;;;;;;35.65;19.48;;;2.30;99.90;;;;;;6297474;22;20042;-82
2022/12/03 20:18:42;;;;;;;35.55;19.83;;;1.70;99.90;;;;;;6297811;22;20077;-83
2022/12/03 20:21:09;;;;;;;38.38;19.80;;;1.30;99.90;;;;;;6296409;22;20011;-82
2022/12/03 20:23:35;;;;;;;33.92;19.23;;;2.00;99.90;;;;;;6298350;22;20109;-83
2022/12/03 20:26:06;;;;;;;35.13;20.15;;;1.20;99.90;;;;;;6325781;22;20046;-84
2022/12/03 20:28:32;;;;;;;37.83;20.40;;;1.30;99.90;;;;;;6300340;22;20023;-83
2022/12/03 20:31:01;;;;;;;40.92;21.83;;;1.30;99.90;;;;;;6302068;22;20068;-82
2022/12/03 20:33:27;;;;;;;36.95;20.23;;;1.30;99.90;;;;;;6325792;22;20094;-83
2022/12/03 20:35:54;;;;;;;36.13;19.58;;;1.20;99.90;;;;;;6299655;22;20344;-84
2022/12/03 20:38:21;;;;;;;38.33;19.70;;;1.20;99.90;;;;;;6299563;22;20098;-84
2022/12/03 20:40:47;;;;;;;36.95;20.45;;;2.40;99.90;;;;;;6300812;22;20191;-83
2022/12/03 20:43:13;;;;;;;44.20;21.88;;;2.30;99.90;;;;;;6298487;22;20023;-84
2022/12/03 20:45:39;;;;;;;38.17;21.40;;;1.00;99.90;;;;;;6300997;22;20455;-83
2022/12/03 20:48:05;;;;;;;38.88;20.92;;;1.70;99.90;;;;;;6298787;22;20074;-83
2022/12/03 20:50:31;;;;;;;40.72;21.70;;;1.10;99.90;;;;;;6299499;22;20384;-83
2022/12/03 20:52:56;;;;;;;42.33;22.33;;;1.20;99.90;;;;;;6299652;22;20057;-84
2022/12/03 20:55:22;;;;;;;42.08;20.40;;;1.50;99.90;;;;;;6299409;22;20100;-84
2022/12/03 20:57:49;;;;;;;39.67;21.23;;;1.10;99.90;;;;;;6299193;22;20410;-84
2022/12/03 21:00:15;;;;;;;40.90;22.38;;;1.10;99.90;;;;;;6300212;22;20015;-84
2022/12/03 21:02:41;;;;;;;38.58;21.38;;;1.10;99.90;;;;;;6299707;22;20054;-84
2022/12/03 21:05:07;;;;;;;38.40;20.88;;;1.10;99.90;;;;;;6273166;22;20019;-84
2022/12/03 21:07:32;;;;;;;39.97;22.52;;;1.10;99.90;;;;;;6299928;22;20511;-84
2022/12/03 21:09:58;;;;;;;42.58;22.63;;;1.60;99.90;;;;;;6299479;22;20050;-84
2022/12/03 21:12:24;;;;;;;45.10;23.05;;;0.20;99.90;;;;;;6300128;22;20025;-84
2022/12/03 21:14:50;;;;;;;43.70;21.80;;;1.00;99.90;;;;;;6300228;22;20058;-84
2022/12/03 21:17:15;;;;;;;43.00;22.60;;;1.30;99.90;;;;;;6298402;22;20530;-84
2022/12/03 21:19:41;;;;;;;41.40;22.48;;;1.20;99.90;;;;;;6299984;22;20109;-84
2022/12/03 21:22:07;;;;;;;44.35;23.00;;;1.80;99.90;;;;;;6299402;22;20019;-84
2022/12/03 21:24:33;;;;;;;46.45;24.30;;;1.00;99.90;;;;;;6299931;22;20305;-84
2022/12/03 21:26:59;;;;;;;45.78;24.02;;;0.90;99.90;;;;;;6299357;22;20568;-84
2022/12/03 21:29:25;;;;;;;42.45;23.52;;;1.90;99.90;;;;;;6300412;22;20030;-84
2022/12/03 21:31:50;;;;;;;46.67;24.77;;;2.10;99.90;;;;;;6298586;22;20335;-84
2022/12/03 21:34:16;;;;;;;47.15;25.73;;;0.60;99.90;;;;;;6301169;22;20082;-84
2022/12/03 21:36:42;;;;;;;47.78;24.10;;;1.00;99.90;;;;;;6300228;22;20458;-84
2022/12/03 21:39:08;;;;;;;48.33;24.25;;;0.90;99.90;;;;;;6298178;22;20015;-84
2022/12/03 21:41:35;;;;;;;44.30;23.88;;;0.90;99.90;;;;;;6300239;22;20023;-84
2022/12/03 21:44:01;;;;;;;45.13;23.10;;;1.90;99.90;;;;;;6299306;22;20336;-84
2022/12/03 21:46:26;;;;;;;46.88;24.52;;;0.90;99.90;;;;;;6301586;22;20023;-84
2022/12/03 21:48:52;;;;;;;47.83;25.25;;;0.80;99.90;;;;;;6298725;22;20389;-84
2022/12/03 21:51:18;;;;;;;46.80;24.42;;;1.80;99.90;;;;;;6299743;22;20057;-84
2022/12/03 21:53:44;;;;;;;48.65;23.75;;;0.80;99.90;;;;;;6298577;22;20401;-84
2022/12/03 21:56:13;;;;;;;48.97;25.42;;;0.80;99.90;;;;;;6299231;22;20401;-84
2022/12/03 21:58:40;;;;;;;46.70;24.25;;;0.60;99.90;;;;;;6325806;22;20473;-84
2022/12/03 22:01:12;;;;;;;48.70;24.00;;;1.70;99.90;;;;;;6297588;22;20026;-84
2022/12/03 22:03:38;;;;;;;52.93;25.63;;;1.60;99.90;;;;;;6299011;22;20494;-84
2022/12/03 22:06:04;;;;;;;50.60;26.00;;;0.80;99.90;;;;;;6298430;22;20156;-84
2022/12/03 22:08:30;;;;;;;46.55;25.67;;;0.80;99.90;;;;;;6299051;22;20015;-84
2022/12/03 22:10:55;;;;;;;45.55;24.27;;;0.60;99.90;;;;;;6299789;22;20030;-84
2022/12/03 22:13:21;;;;;;;49.72;24.60;;;0.60;99.90;;;;;;6298651;22;20331;-84
2022/12/03 22:15:47;;;;;;;51.30;25.13;;;0.70;99.90;;;;;;6299486;22;20019;-84
2022/12/03 22:18:12;;;;;;;49.88;24.60;;;0.50;99.90;;;;;;6297571;22;20022;-84
2022/12/03 22:20:41;;;;;;;52.95;26.38;;;1.40;99.90;;;;;;6298757;22;20015;-84
2022/12/03 22:23:06;;;;;;;48.78;25.70;;;1.50;99.90;;;;;;6298869;22;20054;-85
2022/12/03 22:25:32;;;;;;;46.03;25.13;;;1.30;99.90;;;;;;6299666;22;20023;-84
2022/12/03 22:27:58;;;;;;;49.58;25.48;;;0.70;99.90;;;;;;6297721;22;20049;-84
2022/12/03 22:30:23;;;;;;;44.53;24.88;;;0.70;99.90;;;;;;6299204;22;20013;-85
2022/12/03 22:32:49;;;;;;;46.45;24.08;;;1.60;99.90;;;;;;6298226;22;20023;-84
2022/12/03 22:35:15;;;;;;;41.10;21.95;;;0.70;99.90;;;;;;6298278;22;20019;-84
2022/12/03 22:37:41;;;;;;;44.92;22.63;;;0.70;99.90;;;;;;6299607;22;20458;-84
2022/12/03 22:40:07;;;;;;;39.38;21.67;;;1.30;99.90;;;;;;6299031;22;20327;-84
2022/12/03 22:42:32;;;;;;;42.97;23.98;;;0.70;99.90;;;;;;6298340;22;20073;-84
2022/12/03 22:44:58;;;;;;;38.90;21.60;;;1.50;99.90;;;;;;6298836;22;20519;-84
2022/12/03 22:47:24;;;;;;;40.50;21.40;;;0.60;99.90;;;;;;6298342;22;20015;-84
2022/12/03 22:49:49;;;;;;;39.47;21.80;;;1.50;99.90;;;;;;6272705;22;20027;-84
2022/12/03 22:52:15;;;;;;;43.70;21.75;;;0.90;99.90;;;;;;6298826;22;20019;-84
2022/12/03 22:54:44;;;;;;;41.00;22.67;;;1.50;99.90;;;;;;6298986;22;20471;-84
2022/12/03 22:57:10;;;;;;;39.90;21.30;;;0.60;99.90;;;;;;6298099;22;20015;-84
2022/12/03 22:59:35;;;;;;;41.63;21.90;;;0.50;99.90;;;;;;6299360;22;20029;-84
2022/12/03 23:02:01;;;;;;;39.28;20.85;;;0.60;99.90;;;;;;6297540;22;20062;-84
2022/12/03 23:04:27;;;;;;;40.20;21.63;;;1.20;99.90;;;;;;6298533;22;20011;-84
2022/12/03 23:06:52;;;;;;;42.83;22.52;;;0.90;99.90;;;;;;6272632;22;20321;-84
2022/12/03 23:09:18;;;;;;;38.15;20.23;;;0.30;99.90;;;;;;6299063;22;20093;-84
2022/12/03 23:11:44;;;;;;;38.65;21.63;;;0.60;99.90;;;;;;6297701;22;20102;-84
2022/12/03 23:14:10;;;;;;;37.75;21.05;;;0.40;99.90;;;;;;6298664;22;20019;-84
2022/12/03 23:16:36;;;;;;;40.78;22.17;;;0.40;99.90;;;;;;6272587;22;20027;-84
2022/12/03 23:19:03;;;;;;;41.70;20.92;;;0.40;99.90;;;;;;6296651;22;20030;-84
2022/12/03 23:21:32;;;;;;;38.78;22.42;;;0.10;99.90;;;;;;6299954;22;20019;-84
2022/12/03 23:23:59;;;;;;;39.85;21.17;;;0.60;99.90;;;;;;6296871;22;20019;-84
2022/12/03 23:26:25;;;;;;;40.30;22.60;;;0.50;99.90;;;;;;6299330;22;20081;-84
2022/12/03 23:28:50;;;;;;;38.00;20.40;;;0.10;99.90;;;;;;6298867;22;20015;-85
2022/12/03 23:31:24;;;;;;;44.28;21.55;;;1.10;99.90;;;;;;6297855;22;20019;-84
2022/12/03 23:33:51;;;;;;;37.03;21.25;;;0.30;99.90;;;;;;6297560;22;20047;-83
2022/12/03 23:36:17;;;;;;;40.15;21.02;;;0.30;99.90;;;;;;6298839;22;20023;-84
2022/12/03 23:38:46;;;;;;;37.58;20.70;;;0.40;99.90;;;;;;6297987;22;20008;-84
2022/12/03 23:41:15;;;;;;;38.85;21.25;;;1.50;99.90;;;;;;6298773;22;20015;-84
2022/12/03 23:43:42;;;;;;;43.10;22.17;;;0.40;99.90;;;;;;6298505;22;20065;-84
2022/12/03 23:46:12;;;;;;;37.05;20.27;;;1.00;99.90;;;;;;6297444;22;20054;-84
2022/12/03 23:48:38;;;;;;;40.13;20.35;;;1.60;99.90;;;;;;6298852;22;20076;-84
2022/12/03 23:51:06;;;;;;;38.08;20.85;;;0.40;99.90;;;;;;6298537;22;20463;-84
2022/12/03 23:53:33;;;;;;;37.28;20.00;;;0.40;99.90;;;;;;6298713;22;20015;-84
2022/12/03 23:56:02;;;;;;;37.78;19.98;;;1.40;99.90;;;;;;6299001;22;20068;-84
2022/12/03 23:58:28;;;;;;;35.65;19.63;;;1.40;99.90;;;;;;6299675;22;20077;-84
